sensor_id;sensor_type;location;lat;lon;timestamp;pressure;altitude;pressure_sealevel;temperature;humidity
74544;BME280;63016;55.030;38.710;2022-09-01T00:02:18;99357.50;;;12.50;57.73
74544;BME280;63016;55.030;38.710;2022-09-01T00:04:44;99366.16;;;12.50;57.40
74544;BME280;63016;55.030;38.710;2022-09-01T00:07:12;99369.97;;;12.48;57.16
74544;BME280;63016;55.030;38.710;2022-09-01T00:09:38;99364.28;;;12.44;57.60
74544;BME280;63016;55.030;38.710;2022-09-01T00:12:07;99366.69;;;12.39;57.58
74544;BME280;63016;55.030;38.710;2022-09-01T00:14:37;99371.09;;;12.39;57.37
74544;BME280;63016;55.030;38.710;2022-09-01T00:17:07;99375.28;;;12.33;57.01
74544;BME280;63016;55.030;38.710;2022-09-01T00:19:33;99379.06;;;12.30;57.63
74544;BME280;63016;55.030;38.710;2022-09-01T00:22:02;99375.03;;;12.28;57.75
74544;BME280;63016;55.030;38.710;2022-09-01T00:24:27;99379.66;;;12.26;57.55
74544;BME280;63016;55.030;38.710;2022-09-01T00:26:54;99371.00;;;12.25;57.79
74544;BME280;63016;55.030;38.710;2022-09-01T00:29:20;99374.97;;;12.21;57.40
74544;BME280;63016;55.030;38.710;2022-09-01T00:31:46;99372.56;;;12.20;57.48
74544;BME280;63016;55.030;38.710;2022-09-01T00:34:12;99376.53;;;12.16;57.64
74544;BME280;63016;55.030;38.710;2022-09-01T00:36:38;99372.06;;;12.09;57.75
74544;BME280;63016;55.030;38.710;2022-09-01T00:39:05;99371.28;;;12.09;57.89
74544;BME280;63016;55.030;38.710;2022-09-01T00:41:33;99378.09;;;12.10;57.71
74544;BME280;63016;55.030;38.710;2022-09-01T00:44:01;99359.16;;;12.08;57.77
74544;BME280;63016;55.030;38.710;2022-09-01T00:46:50;99365.03;;;12.10;57.18
74544;BME280;63016;55.030;38.710;2022-09-01T00:49:19;99361.16;;;12.06;57.76
74544;BME280;63016;55.030;38.710;2022-09-01T00:51:50;99357.56;;;12.07;57.57
74544;BME280;63016;55.030;38.710;2022-09-01T00:54:24;99350.84;;;11.98;57.98
74544;BME280;63016;55.030;38.710;2022-09-01T00:56:53;99354.66;;;11.95;57.73
74544;BME280;63016;55.030;38.710;2022-09-01T00:59:21;99356.00;;;11.91;57.57
74544;BME280;63016;55.030;38.710;2022-09-01T01:01:49;99361.59;;;11.88;58.06
74544;BME280;63016;55.030;38.710;2022-09-01T01:04:15;99360.44;;;11.91;58.06
74544;BME280;63016;55.030;38.710;2022-09-01T01:06:43;99362.25;;;11.90;57.83
74544;BME280;63016;55.030;38.710;2022-09-01T01:09:15;99362.00;;;11.85;57.99
74544;BME280;63016;55.030;38.710;2022-09-01T01:11:43;99370.00;;;11.83;57.54
74544;BME280;63016;55.030;38.710;2022-09-01T01:14:15;99364.34;;;11.80;57.45
74544;BME280;63016;55.030;38.710;2022-09-01T01:16:46;99360.28;;;11.77;58.03
74544;BME280;63016;55.030;38.710;2022-09-01T01:19:23;99352.78;;;11.74;58.21
74544;BME280;63016;55.030;38.710;2022-09-01T01:25:27;99349.19;;;11.75;58.08
74544;BME280;63016;55.030;38.710;2022-09-01T01:28:16;99341.13;;;11.70;57.91
74544;BME280;63016;55.030;38.710;2022-09-01T01:30:52;99351.38;;;11.72;58.20
74544;BME280;63016;55.030;38.710;2022-09-01T01:33:24;99348.13;;;11.70;58.08
74544;BME280;63016;55.030;38.710;2022-09-01T01:35:51;99343.91;;;11.69;57.58
74544;BME280;63016;55.030;38.710;2022-09-01T01:38:18;99337.41;;;11.65;58.21
74544;BME280;63016;55.030;38.710;2022-09-01T01:40:48;99343.44;;;11.65;58.26
74544;BME280;63016;55.030;38.710;2022-09-01T01:43:14;99342.22;;;11.61;57.98
74544;BME280;63016;55.030;38.710;2022-09-01T01:45:46;99339.78;;;11.59;58.14
74544;BME280;63016;55.030;38.710;2022-09-01T01:48:14;99338.53;;;11.55;58.57
74544;BME280;63016;55.030;38.710;2022-09-01T01:50:40;99342.13;;;11.54;58.45
74544;BME280;63016;55.030;38.710;2022-09-01T01:53:08;99342.13;;;11.54;58.35
74544;BME280;63016;55.030;38.710;2022-09-01T01:55:39;99342.34;;;11.53;58.54
74544;BME280;63016;55.030;38.710;2022-09-01T01:58:05;99355.59;;;11.51;58.46
74544;BME280;63016;55.030;38.710;2022-09-01T02:00:36;99342.63;;;11.43;58.57
74544;BME280;63016;55.030;38.710;2022-09-01T02:03:03;99337.16;;;11.38;58.69
74544;BME280;63016;55.030;38.710;2022-09-01T02:05:34;99338.31;;;11.36;58.36
74544;BME280;63016;55.030;38.710;2022-09-01T02:08:03;99347.97;;;11.35;58.80
74544;BME280;63016;55.030;38.710;2022-09-01T02:10:32;99340.13;;;11.35;59.15
74544;BME280;63016;55.030;38.710;2022-09-01T02:12:59;99344.72;;;11.33;58.50
74544;BME280;63016;55.030;38.710;2022-09-01T02:15:36;99346.53;;;11.32;58.89
74544;BME280;63016;55.030;38.710;2022-09-01T02:18:08;99346.69;;;11.31;58.90
74544;BME280;63016;55.030;38.710;2022-09-01T02:20:33;99349.16;;;11.32;58.89
74544;BME280;63016;55.030;38.710;2022-09-01T02:22:59;99343.28;;;11.30;59.00
74544;BME280;63016;55.030;38.710;2022-09-01T02:25:34;99345.47;;;11.27;58.91
74544;BME280;63016;55.030;38.710;2022-09-01T02:28:00;99348.25;;;11.25;58.72
74544;BME280;63016;55.030;38.710;2022-09-01T02:30:29;99345.03;;;11.23;58.85
74544;BME280;63016;55.030;38.710;2022-09-01T02:33:00;99345.22;;;11.22;58.67
74544;BME280;63016;55.030;38.710;2022-09-01T02:35:26;99345.38;;;11.20;59.51
74544;BME280;63016;55.030;38.710;2022-09-01T02:38:07;99348.19;;;11.19;58.78
74544;BME280;63016;55.030;38.710;2022-09-01T02:40:33;99342.16;;;11.18;58.59
74544;BME280;63016;55.030;38.710;2022-09-01T02:42:59;99343.16;;;11.17;59.45
74544;BME280;63016;55.030;38.710;2022-09-01T02:45:26;99344.91;;;11.17;59.18
74544;BME280;63016;55.030;38.710;2022-09-01T02:47:56;99347.72;;;11.15;59.60
74544;BME280;63016;55.030;38.710;2022-09-01T02:50:23;99345.13;;;11.15;59.57
74544;BME280;63016;55.030;38.710;2022-09-01T02:52:50;99343.31;;;11.16;58.96
74544;BME280;63016;55.030;38.710;2022-09-01T02:55:19;99350.53;;;11.14;58.90
74544;BME280;63016;55.030;38.710;2022-09-01T02:57:50;99345.66;;;11.11;59.41
74544;BME280;63016;55.030;38.710;2022-09-01T03:00:21;99343.25;;;11.09;59.22
74544;BME280;63016;55.030;38.710;2022-09-01T03:02:54;99352.22;;;11.06;59.27
74544;BME280;63016;55.030;38.710;2022-09-01T03:05:22;99353.88;;;11.07;59.24
74544;BME280;63016;55.030;38.710;2022-09-01T03:07:56;99354.50;;;11.10;59.85
74544;BME280;63016;55.030;38.710;2022-09-01T03:10:25;99364.59;;;11.13;59.82
74544;BME280;63016;55.030;38.710;2022-09-01T03:12:53;99357.38;;;11.15;60.03
74544;BME280;63016;55.030;38.710;2022-09-01T03:15:19;99363.19;;;11.17;59.50
74544;BME280;63016;55.030;38.710;2022-09-01T03:17:46;99365.81;;;11.17;59.59
74544;BME280;63016;55.030;38.710;2022-09-01T03:20:14;99366.81;;;11.16;59.77
74544;BME280;63016;55.030;38.710;2022-09-01T03:22:40;99367.47;;;11.18;59.65
74544;BME280;63016;55.030;38.710;2022-09-01T03:25:08;99369.88;;;11.19;60.01
74544;BME280;63016;55.030;38.710;2022-09-01T03:27:34;99376.72;;;11.20;59.81
74544;BME280;63016;55.030;38.710;2022-09-01T03:29:59;99378.31;;;11.21;59.81
74544;BME280;63016;55.030;38.710;2022-09-01T03:32:25;99385.63;;;11.26;60.20
74544;BME280;63016;55.030;38.710;2022-09-01T03:34:50;99382.66;;;11.29;59.69
74544;BME280;63016;55.030;38.710;2022-09-01T03:37:16;99385.72;;;11.32;59.97
74544;BME280;63016;55.030;38.710;2022-09-01T03:39:43;99388.13;;;11.34;60.08
74544;BME280;63016;55.030;38.710;2022-09-01T03:42:08;99374.81;;;11.29;59.97
74544;BME280;63016;55.030;38.710;2022-09-01T03:44:43;99384.97;;;11.39;60.22
74544;BME280;63016;55.030;38.710;2022-09-01T03:47:09;99387.41;;;11.40;60.02
74544;BME280;63016;55.030;38.710;2022-09-01T03:49:35;99393.88;;;11.44;60.31
74544;BME280;63016;55.030;38.710;2022-09-01T03:52:01;99388.28;;;11.47;59.99
74544;BME280;63016;55.030;38.710;2022-09-01T03:54:26;99391.53;;;11.49;60.04
74544;BME280;63016;55.030;38.710;2022-09-01T03:56:54;99404.59;;;11.49;59.97
74544;BME280;63016;55.030;38.710;2022-09-01T03:59:22;99406.84;;;11.52;60.05
74544;BME280;63016;55.030;38.710;2022-09-01T04:01:49;99412.25;;;11.51;60.36
74544;BME280;63016;55.030;38.710;2022-09-01T04:04:16;99409.81;;;11.49;60.16
74544;BME280;63016;55.030;38.710;2022-09-01T04:06:43;99415.84;;;11.50;59.70
74544;BME280;63016;55.030;38.710;2022-09-01T04:09:09;99416.50;;;11.52;60.01
74544;BME280;63016;55.030;38.710;2022-09-01T04:11:36;99417.28;;;11.52;59.89
74544;BME280;63016;55.030;38.710;2022-09-01T04:14:04;99415.50;;;11.53;59.96
74544;BME280;63016;55.030;38.710;2022-09-01T04:16:32;99407.47;;;11.54;59.82
74544;BME280;63016;55.030;38.710;2022-09-01T04:19:20;99412.94;;;11.59;60.05
74544;BME280;63016;55.030;38.710;2022-09-01T04:21:52;99415.38;;;11.61;60.15
74544;BME280;63016;55.030;38.710;2022-09-01T04:24:19;99407.81;;;11.66;60.60
74544;BME280;63016;55.030;38.710;2022-09-01T04:26:46;99407.41;;;11.69;60.19
74544;BME280;63016;55.030;38.710;2022-09-01T04:29:14;99416.72;;;11.72;59.95
74544;BME280;63016;55.030;38.710;2022-09-01T04:31:42;99409.94;;;11.77;60.22
74544;BME280;63016;55.030;38.710;2022-09-01T04:34:08;99402.53;;;11.81;59.87
74544;BME280;63016;55.030;38.710;2022-09-01T04:36:42;99402.81;;;11.86;59.98
74544;BME280;63016;55.030;38.710;2022-09-01T04:39:09;99404.69;;;11.92;60.32
74544;BME280;63016;55.030;38.710;2022-09-01T04:41:39;99401.72;;;11.95;59.99
74544;BME280;63016;55.030;38.710;2022-09-01T04:44:06;99398.53;;;12.00;59.65
74544;BME280;63016;55.030;38.710;2022-09-01T04:46:36;99393.72;;;12.03;59.80
74544;BME280;63016;55.030;38.710;2022-09-01T04:49:04;99392.19;;;12.09;59.93
74544;BME280;63016;55.030;38.710;2022-09-01T04:51:39;99398.47;;;12.15;59.97
74544;BME280;63016;55.030;38.710;2022-09-01T04:54:06;99395.09;;;12.21;59.51
74544;BME280;63016;55.030;38.710;2022-09-01T04:56:35;99398.31;;;12.23;59.43
74544;BME280;63016;55.030;38.710;2022-09-01T04:59:02;99395.13;;;12.27;59.87
74544;BME280;63016;55.030;38.710;2022-09-01T05:01:31;99393.78;;;12.31;59.70
74544;BME280;63016;55.030;38.710;2022-09-01T05:04:08;99384.56;;;12.35;59.63
74544;BME280;63016;55.030;38.710;2022-09-01T05:06:34;99391.84;;;12.40;59.37
74544;BME280;63016;55.030;38.710;2022-09-01T05:09:03;99392.28;;;12.44;59.45
74544;BME280;63016;55.030;38.710;2022-09-01T05:11:29;99396.94;;;12.48;59.66
74544;BME280;63016;55.030;38.710;2022-09-01T05:13:57;99399.16;;;12.51;59.29
74544;BME280;63016;55.030;38.710;2022-09-01T05:16:23;99395.16;;;12.55;59.66
74544;BME280;63016;55.030;38.710;2022-09-01T05:18:50;99402.25;;;12.61;59.46
74544;BME280;63016;55.030;38.710;2022-09-01T05:21:20;99400.06;;;12.65;59.68
74544;BME280;63016;55.030;38.710;2022-09-01T05:23:49;99410.59;;;12.72;59.72
74544;BME280;63016;55.030;38.710;2022-09-01T05:26:30;99394.94;;;12.78;59.16
74544;BME280;63016;55.030;38.710;2022-09-01T05:29:00;99394.72;;;12.80;58.88
74544;BME280;63016;55.030;38.710;2022-09-01T05:31:29;99399.97;;;12.80;59.32
74544;BME280;63016;55.030;38.710;2022-09-01T05:34:02;99401.81;;;12.86;59.50
74544;BME280;63016;55.030;38.710;2022-09-01T05:36:28;99398.66;;;12.97;59.44
74544;BME280;63016;55.030;38.710;2022-09-01T05:38:58;99389.59;;;13.00;58.97
74544;BME280;63016;55.030;38.710;2022-09-01T05:41:25;99392.28;;;13.06;58.83
74544;BME280;63016;55.030;38.710;2022-09-01T05:43:51;99398.34;;;13.13;58.87
74544;BME280;63016;55.030;38.710;2022-09-01T05:46:23;99383.06;;;13.17;58.85
74544;BME280;63016;55.030;38.710;2022-09-01T05:48:50;99395.63;;;13.28;58.48
74544;BME280;63016;55.030;38.710;2022-09-01T05:51:19;99389.78;;;13.33;58.21
74544;BME280;63016;55.030;38.710;2022-09-01T05:53:46;99405.72;;;13.38;58.32
74544;BME280;63016;55.030;38.710;2022-09-01T05:56:16;99406.59;;;13.45;58.20
74544;BME280;63016;55.030;38.710;2022-09-01T05:58:44;99406.81;;;13.50;57.86
74544;BME280;63016;55.030;38.710;2022-09-01T06:01:16;99396.31;;;13.57;58.05
74544;BME280;63016;55.030;38.710;2022-09-01T06:03:43;99405.44;;;13.68;58.42
74544;BME280;63016;55.030;38.710;2022-09-01T06:06:09;99401.25;;;13.80;58.38
74544;BME280;63016;55.030;38.710;2022-09-01T06:08:36;99401.06;;;13.95;58.43
74544;BME280;63016;55.030;38.710;2022-09-01T06:11:05;99408.38;;;14.12;58.08
74544;BME280;63016;55.030;38.710;2022-09-01T06:13:39;99399.09;;;14.23;57.81
74544;BME280;63016;55.030;38.710;2022-09-01T06:16:10;99410.59;;;14.29;57.60
74544;BME280;63016;55.030;38.710;2022-09-01T06:18:37;99405.53;;;14.34;57.73
74544;BME280;63016;55.030;38.710;2022-09-01T06:21:05;99411.41;;;14.36;56.88
74544;BME280;63016;55.030;38.710;2022-09-01T06:23:33;99400.91;;;14.36;57.28
74544;BME280;63016;55.030;38.710;2022-09-01T06:25:58;99413.84;;;14.37;57.04
74544;BME280;63016;55.030;38.710;2022-09-01T06:28:26;99417.84;;;14.40;56.80
74544;BME280;63016;55.030;38.710;2022-09-01T06:30:54;99411.19;;;14.44;56.99
74544;BME280;63016;55.030;38.710;2022-09-01T06:33:22;99418.91;;;14.52;56.97
74544;BME280;63016;55.030;38.710;2022-09-01T06:35:49;99424.94;;;14.59;56.98
74544;BME280;63016;55.030;38.710;2022-09-01T06:38:17;99422.72;;;14.63;56.66
74544;BME280;63016;55.030;38.710;2022-09-01T06:40:44;99421.53;;;14.65;56.32
74544;BME280;63016;55.030;38.710;2022-09-01T06:43:10;99422.13;;;14.68;56.50
74544;BME280;63016;55.030;38.710;2022-09-01T06:45:45;99418.47;;;14.69;56.66
74544;BME280;63016;55.030;38.710;2022-09-01T06:48:18;99418.28;;;14.70;56.41
74544;BME280;63016;55.030;38.710;2022-09-01T06:50:44;99417.69;;;14.75;57.01
74544;BME280;63016;55.030;38.710;2022-09-01T06:53:11;99412.59;;;14.86;57.14
74544;BME280;63016;55.030;38.710;2022-09-01T06:55:38;99412.78;;;14.98;56.52
74544;BME280;63016;55.030;38.710;2022-09-01T06:58:05;99412.16;;;15.09;56.85
74544;BME280;63016;55.030;38.710;2022-09-01T07:00:33;99423.63;;;15.22;56.57
74544;BME280;63016;55.030;38.710;2022-09-01T07:02:59;99420.56;;;15.31;57.00
74544;BME280;63016;55.030;38.710;2022-09-01T07:05:32;99431.44;;;15.41;56.18
74544;BME280;63016;55.030;38.710;2022-09-01T07:07:58;99422.16;;;15.39;55.53
74544;BME280;63016;55.030;38.710;2022-09-01T07:10:26;99425.81;;;15.38;55.42
74544;BME280;63016;55.030;38.710;2022-09-01T07:12:53;99421.72;;;15.42;56.61
74544;BME280;63016;55.030;38.710;2022-09-01T07:15:20;99418.84;;;15.57;55.90
74544;BME280;63016;55.030;38.710;2022-09-01T07:17:48;99422.06;;;15.65;55.63
74544;BME280;63016;55.030;38.710;2022-09-01T07:20:15;99421.66;;;15.68;56.07
74544;BME280;63016;55.030;38.710;2022-09-01T07:22:41;99419.78;;;15.76;55.69
74544;BME280;63016;55.030;38.710;2022-09-01T07:25:07;99412.06;;;15.81;55.47
74544;BME280;63016;55.030;38.710;2022-09-01T07:27:37;99418.28;;;15.93;55.50
74544;BME280;63016;55.030;38.710;2022-09-01T07:30:03;99418.69;;;15.97;55.61
74544;BME280;63016;55.030;38.710;2022-09-01T07:32:33;99419.44;;;16.04;55.62
74544;BME280;63016;55.030;38.710;2022-09-01T07:34:59;99413.28;;;16.16;55.58
74544;BME280;63016;55.030;38.710;2022-09-01T07:37:25;99414.41;;;16.27;56.16
74544;BME280;63016;55.030;38.710;2022-09-01T07:39:52;99417.13;;;16.39;55.84
74544;BME280;63016;55.030;38.710;2022-09-01T07:42:18;99416.31;;;16.45;55.21
74544;BME280;63016;55.030;38.710;2022-09-01T07:44:44;99416.47;;;16.50;55.12
74544;BME280;63016;55.030;38.710;2022-09-01T07:47:10;99415.59;;;16.56;55.14
74544;BME280;63016;55.030;38.710;2022-09-01T07:49:36;99423.66;;;16.61;54.46
74544;BME280;63016;55.030;38.710;2022-09-01T07:52:03;99424.06;;;16.58;54.52
74544;BME280;63016;55.030;38.710;2022-09-01T07:54:29;99420.28;;;16.54;54.93
74544;BME280;63016;55.030;38.710;2022-09-01T07:56:55;99428.75;;;16.56;55.23
74544;BME280;63016;55.030;38.710;2022-09-01T07:59:21;99413.91;;;16.62;54.99
74544;BME280;63016;55.030;38.710;2022-09-01T08:01:47;99408.59;;;16.68;54.65
74544;BME280;63016;55.030;38.710;2022-09-01T08:04:12;99425.19;;;16.76;54.34
74544;BME280;63016;55.030;38.710;2022-09-01T08:06:39;99409.28;;;16.82;53.81
74544;BME280;63016;55.030;38.710;2022-09-01T08:09:04;99415.97;;;16.85;53.67
74544;BME280;63016;55.030;38.710;2022-09-01T08:11:31;99420.28;;;16.79;53.32
74544;BME280;63016;55.030;38.710;2022-09-01T08:13:58;99411.00;;;16.70;53.16
74544;BME280;63016;55.030;38.710;2022-09-01T08:16:28;99419.19;;;16.62;53.51
74544;BME280;63016;55.030;38.710;2022-09-01T08:18:54;99411.75;;;16.59;53.14
74544;BME280;63016;55.030;38.710;2022-09-01T08:21:21;99414.16;;;16.60;53.79
74544;BME280;63016;55.030;38.710;2022-09-01T08:23:51;99400.97;;;16.60;53.57
74544;BME280;63016;55.030;38.710;2022-09-01T08:26:19;99410.25;;;16.63;54.06
74544;BME280;63016;55.030;38.710;2022-09-01T08:28:45;99411.50;;;16.60;53.33
74544;BME280;63016;55.030;38.710;2022-09-01T08:31:14;99406.13;;;16.49;53.28
74544;BME280;63016;55.030;38.710;2022-09-01T08:33:42;99405.38;;;16.41;52.97
74544;BME280;63016;55.030;38.710;2022-09-01T08:36:11;99417.38;;;16.37;53.60
74544;BME280;63016;55.030;38.710;2022-09-01T08:38:37;99408.44;;;16.38;53.43
74544;BME280;63016;55.030;38.710;2022-09-01T08:41:04;99409.84;;;16.41;53.55
74544;BME280;63016;55.030;38.710;2022-09-01T08:46:24;99411.47;;;16.42;53.73
74544;BME280;63016;55.030;38.710;2022-09-01T08:49:05;99413.72;;;16.38;53.21
74544;BME280;63016;55.030;38.710;2022-09-01T08:51:38;99409.69;;;16.36;52.92
74544;BME280;63016;55.030;38.710;2022-09-01T08:54:28;99411.88;;;16.39;53.53
74544;BME280;63016;55.030;38.710;2022-09-01T08:57:00;99405.78;;;16.45;53.63
74544;BME280;63016;55.030;38.710;2022-09-01T08:59:28;99413.53;;;16.58;53.67
74544;BME280;63016;55.030;38.710;2022-09-01T09:10:25;99413.50;;;16.90;52.83
74544;BME280;63016;55.030;38.710;2022-09-01T09:18:50;99421.09;;;16.80;52.77
74544;BME280;63016;55.030;38.710;2022-09-01T09:26:39;99429.16;;;17.03;52.61
74544;BME280;63016;55.030;38.710;2022-09-01T09:29:05;99417.31;;;17.12;53.12
74544;BME280;63016;55.030;38.710;2022-09-01T09:31:37;99416.56;;;17.24;53.28
74544;BME280;63016;55.030;38.710;2022-09-01T09:36:52;99419.25;;;17.35;52.29
74544;BME280;63016;55.030;38.710;2022-09-01T09:39:20;99422.13;;;17.34;52.00
74544;BME280;63016;55.030;38.710;2022-09-01T09:42:21;99437.00;;;17.28;53.50
74544;BME280;63016;55.030;38.710;2022-09-01T09:44:48;99433.06;;;17.19;51.92
74544;BME280;63016;55.030;38.710;2022-09-01T09:50:25;99450.19;;;17.10;52.69
74544;BME280;63016;55.030;38.710;2022-09-01T09:53:04;99441.31;;;17.04;52.11
74544;BME280;63016;55.030;38.710;2022-09-01T09:55:34;99446.97;;;17.08;52.01
74544;BME280;63016;55.030;38.710;2022-09-01T09:58:09;99441.47;;;17.09;52.46
74544;BME280;63016;55.030;38.710;2022-09-01T10:00:35;99438.41;;;17.12;52.20
74544;BME280;63016;55.030;38.710;2022-09-01T10:03:07;99443.81;;;17.17;51.92
74544;BME280;63016;55.030;38.710;2022-09-01T10:08:04;99446.88;;;17.14;51.66
74544;BME280;63016;55.030;38.710;2022-09-01T10:13:24;99453.31;;;17.00;52.35
74544;BME280;63016;55.030;38.710;2022-09-01T10:15:58;99459.25;;;16.95;51.65
74544;BME280;63016;55.030;38.710;2022-09-01T10:18:50;99453.53;;;16.99;53.19
74544;BME280;63016;55.030;38.710;2022-09-01T10:21:23;99455.53;;;17.03;52.16
74544;BME280;63016;55.030;38.710;2022-09-01T10:23:51;99452.66;;;17.05;51.66
74544;BME280;63016;55.030;38.710;2022-09-01T10:26:34;99444.53;;;17.06;52.18
74544;BME280;63016;55.030;38.710;2022-09-01T10:29:13;99456.72;;;17.07;52.24
74544;BME280;63016;55.030;38.710;2022-09-01T10:31:40;99457.28;;;17.09;52.21
74544;BME280;63016;55.030;38.710;2022-09-01T10:34:11;99448.72;;;17.14;52.54
74544;BME280;63016;55.030;38.710;2022-09-01T10:36:41;99452.44;;;17.25;52.35
74544;BME280;63016;55.030;38.710;2022-09-01T10:39:13;99463.28;;;17.35;52.34
74544;BME280;63016;55.030;38.710;2022-09-01T10:44:21;99466.44;;;17.43;51.46
74544;BME280;63016;55.030;38.710;2022-09-01T10:46:48;99466.53;;;17.37;51.13
74544;BME280;63016;55.030;38.710;2022-09-01T10:49:21;99457.22;;;17.34;51.44
74544;BME280;63016;55.030;38.710;2022-09-01T10:52:05;99466.53;;;17.37;51.33
74544;BME280;63016;55.030;38.710;2022-09-01T10:57:42;99463.75;;;17.32;51.59
74544;BME280;63016;55.030;38.710;2022-09-01T11:05:59;99462.28;;;17.36;52.19
74544;BME280;63016;55.030;38.710;2022-09-01T11:11:21;99461.69;;;17.34;51.57
74544;BME280;63016;55.030;38.710;2022-09-01T11:13:51;99453.78;;;17.34;51.14
74544;BME280;63016;55.030;38.710;2022-09-01T11:16:35;99463.66;;;17.38;51.56
74544;BME280;63016;55.030;38.710;2022-09-01T11:27:54;99467.91;;;17.39;50.37
74544;BME280;63016;55.030;38.710;2022-09-01T11:30:02;99461.91;;;17.32;50.80
74544;BME280;63016;55.030;38.710;2022-09-01T11:32:33;99462.94;;;17.31;50.82
74544;BME280;63016;55.030;38.710;2022-09-01T11:35:05;99465.59;;;17.31;50.58
74544;BME280;63016;55.030;38.710;2022-09-01T11:37:39;99466.97;;;17.34;50.55
74544;BME280;63016;55.030;38.710;2022-09-01T11:40:06;99468.56;;;17.35;50.78
74544;BME280;63016;55.030;38.710;2022-09-01T11:42:38;99478.69;;;17.38;50.29
74544;BME280;63016;55.030;38.710;2022-09-01T11:47:44;99462.72;;;17.33;50.47
74544;BME280;63016;55.030;38.710;2022-09-01T11:50:25;99467.63;;;17.29;50.31
74544;BME280;63016;55.030;38.710;2022-09-01T11:55:40;99470.75;;;17.19;51.33
74544;BME280;63016;55.030;38.710;2022-09-01T11:58:10;99475.22;;;17.19;50.61
74544;BME280;63016;55.030;38.710;2022-09-01T12:00:39;99471.38;;;17.21;50.35
74544;BME280;63016;55.030;38.710;2022-09-01T12:03:22;99461.81;;;17.20;50.49
74544;BME280;63016;55.030;38.710;2022-09-01T12:06:00;99469.97;;;17.19;50.41
74544;BME280;63016;55.030;38.710;2022-09-01T12:08:30;99471.22;;;17.16;50.35
74544;BME280;63016;55.030;38.710;2022-09-01T12:13:29;99461.66;;;17.15;50.34
74544;BME280;63016;55.030;38.710;2022-09-01T12:16:01;99461.03;;;17.20;50.50
74544;BME280;63016;55.030;38.710;2022-09-01T12:18:28;99471.66;;;17.32;52.35
74544;BME280;63016;55.030;38.710;2022-09-01T12:20:56;99465.59;;;17.31;50.07
74544;BME280;63016;55.030;38.710;2022-09-01T12:26:01;99455.97;;;17.18;50.08
74544;BME280;63016;55.030;38.710;2022-09-01T12:28:31;99472.22;;;17.15;50.06
74544;BME280;63016;55.030;38.710;2022-09-01T12:31:01;99458.84;;;17.17;50.01
74544;BME280;63016;55.030;38.710;2022-09-01T12:33:27;99467.56;;;17.17;50.49
74544;BME280;63016;55.030;38.710;2022-09-01T12:38:43;99457.44;;;17.33;50.68
74544;BME280;63016;55.030;38.710;2022-09-01T12:41:31;99454.44;;;17.47;51.34
74544;BME280;63016;55.030;38.710;2022-09-01T12:44:25;99457.72;;;17.61;51.35
74544;BME280;63016;55.030;38.710;2022-09-01T12:46:51;99458.00;;;17.71;50.25
74544;BME280;63016;55.030;38.710;2022-09-01T12:49:32;99453.69;;;17.77;50.11
74544;BME280;63016;55.030;38.710;2022-09-01T12:55:06;99459.03;;;17.70;49.68
74544;BME280;63016;55.030;38.710;2022-09-01T12:57:38;99459.19;;;17.76;50.05
74544;BME280;63016;55.030;38.710;2022-09-01T13:03:21;99448.00;;;17.92;51.69
74544;BME280;63016;55.030;38.710;2022-09-01T13:07:57;99457.13;;;17.78;49.03
74544;BME280;63016;55.030;38.710;2022-09-01T13:10:25;99461.72;;;17.64;49.13
74544;BME280;63016;55.030;38.710;2022-09-01T13:12:53;99460.22;;;17.56;49.05
74544;BME280;63016;55.030;38.710;2022-09-01T13:15:20;99452.50;;;17.55;49.38
74544;BME280;63016;55.030;38.710;2022-09-01T13:17:46;99451.03;;;17.59;49.40
74544;BME280;63016;55.030;38.710;2022-09-01T13:20:19;99457.72;;;17.61;49.70
74544;BME280;63016;55.030;38.710;2022-09-01T13:22:45;99459.69;;;17.66;49.17
74544;BME280;63016;55.030;38.710;2022-09-01T13:25:12;99462.09;;;17.67;49.36
74544;BME280;63016;55.030;38.710;2022-09-01T13:27:39;99446.84;;;17.69;49.03
74544;BME280;63016;55.030;38.710;2022-09-01T13:30:10;99460.44;;;17.73;48.80
74544;BME280;63016;55.030;38.710;2022-09-01T13:32:37;99458.00;;;17.71;48.23
74544;BME280;63016;55.030;38.710;2022-09-01T13:35:03;99453.97;;;17.69;48.42
74544;BME280;63016;55.030;38.710;2022-09-01T13:37:31;99447.75;;;17.63;48.58
74544;BME280;63016;55.030;38.710;2022-09-01T13:39:56;99437.00;;;17.65;48.31
74544;BME280;63016;55.030;38.710;2022-09-01T13:42:22;99448.34;;;17.65;47.98
74544;BME280;63016;55.030;38.710;2022-09-01T13:44:47;99446.13;;;17.62;48.04
74544;BME280;63016;55.030;38.710;2022-09-01T13:47:13;99441.91;;;17.61;48.33
74544;BME280;63016;55.030;38.710;2022-09-01T13:49:38;99451.41;;;17.62;48.05
74544;BME280;63016;55.030;38.710;2022-09-01T13:52:04;99443.94;;;17.59;48.22
74544;BME280;63016;55.030;38.710;2022-09-01T13:54:30;99440.50;;;17.59;48.36
74544;BME280;63016;55.030;38.710;2022-09-01T13:56:56;99443.94;;;17.59;48.46
74544;BME280;63016;55.030;38.710;2022-09-01T13:59:21;99450.00;;;17.60;47.92
74544;BME280;63016;55.030;38.710;2022-09-01T14:01:47;99455.28;;;17.60;48.19
74544;BME280;63016;55.030;38.710;2022-09-01T14:04:13;99449.56;;;17.63;48.27
74544;BME280;63016;55.030;38.710;2022-09-01T14:06:40;99457.06;;;17.66;48.10
74544;BME280;63016;55.030;38.710;2022-09-01T14:09:05;99446.50;;;17.66;47.72
74544;BME280;63016;55.030;38.710;2022-09-01T14:11:31;99451.19;;;17.64;48.23
74544;BME280;63016;55.030;38.710;2022-09-01T14:13:59;99451.78;;;17.66;47.76
74544;BME280;63016;55.030;38.710;2022-09-01T14:16:24;99448.41;;;17.59;47.72
74544;BME280;63016;55.030;38.710;2022-09-01T14:18:49;99443.66;;;17.49;47.92
74544;BME280;63016;55.030;38.710;2022-09-01T14:21:15;99452.38;;;17.50;48.04
74544;BME280;63016;55.030;38.710;2022-09-01T14:23:44;99454.44;;;17.47;48.34